This is the latest recevied weather packets stored in our database for station/object R1CBW-13. If no packets are shown the sender has not sent any weather packets the latest 10 day(s).
| Time | Temp. | Humidity | Pressure | Rain* | Wind** | Luminosity | Snow |
|---|---|---|---|---|---|---|---|
| 1778242394 | 12.78° C | 41% | 1023 hPa | 0 mm | - | - | - |
| 1778242334 | 13.33° C | 39% | 1023 hPa | 0 mm | - | - | - |
| 1778242274 | 12.78° C | 40% | 1023.1 hPa | 0 mm | - | - | - |
| 1778242214 | 13.33° C | 40% | 1023.1 hPa | 0 mm | - | - | - |
| 1778242154 | 12.78° C | 42% | 1023.2 hPa | 0 mm | - | - | - |
| 1778242094 | 12.78° C | 42% | 1023 hPa | 0 mm | - | - | - |
| 1778242034 | 13.33° C | 41% | 1023 hPa | 0 mm | - | - | - |
| 1778241974 | 13.33° C | 41% | 1023 hPa | 0 mm | - | - | - |
| 1778241914 | 12.78° C | 41% | 1023 hPa | 0 mm | - | - | - |
| 1778241854 | 12.78° C | 41% | 1022.9 hPa | 0 mm | - | - | - |
| 1778241794 | 12.78° C | 41% | 1022.9 hPa | 0 mm | - | - | - |
| 1778241734 | 13.33° C | 40% | 1023.1 hPa | 0 mm | - | - | - |
| 1778241674 | 13.33° C | 40% | 1023 hPa | 0 mm | - | - | - |
| 1778241614 | 12.78° C | 41% | 1023 hPa | 0 mm | - | - | - |
| 1778241554 | 12.22° C | 41% | 1023.1 hPa | 0 mm | - | - | - |
| 1778241494 | 12.78° C | 39% | 1023 hPa | 0 mm | - | - | - |
| 1778241434 | 13.33° C | 38% | 1023.1 hPa | 0 mm | - | - | - |
| 1778241374 | 12.22° C | 40% | 1023 hPa | 0 mm | - | - | - |
| 1778241314 | 12.78° C | 35% | 1023 hPa | 0 mm | - | - | - |
| 1778241254 | 13.33° C | 35% | 1022.9 hPa | 0 mm | - | - | - |
| 1778241194 | 12.78° C | 36% | 1022.9 hPa | 0 mm | - | - | - |
| 1778241134 | 13.33° C | 37% | 1023 hPa | 0 mm | - | - | - |
| 1778241074 | 13.33° C | 37% | 1022.8 hPa | 0 mm | - | - | - |
| 1778241014 | 12.78° C | 38% | 1022.8 hPa | 0 mm | - | - | - |
| 1778240954 | 12.78° C | 37% | 1022.8 hPa | 0 mm | - | - | - |
* Rain latest hour (hover to see other rain measurements)
** Current wind speed in m/s (hover to see current wind gust speed)